Long Hua — VRFR5 — position and weather

sailwx.info

Track history (hours):
 
Tides and Currents Weather Stations Pressure Air Temp Water Temp Dewpoint Dewpoint Depression Visibility Wind Speed Wind Dir Waves Ship Positions

Long Hua

Last reported at 2016-May-25 18:25 UTC. Time now 2016-May-29 11:38 UTC.
Position N 24°45' E 119°43'.

Length 180 m; draft 9.3 m.

Type: Cargo ship. MMSI: 477622800.

Date/timePositionNaut miles runAvg speedWind from/ knotsBaromVisibWave heightAir tempDewpointWater temp
2016-May-25 18:25N 24°45' E 119°43'2312.2
2016-May-25 16:29N 24°37' E 119°19'1111.8
2016-May-25 15:33N 24°33' E 119°07'57 6.4
2016-May-25 06:33N 24°25' E 118°05'7 6.7
2016-May-25 05:33N 24°32' E 118°05'1 0.9
2016-May-25 04:33N 24°32' E 118°05'0 0.0
2016-May-25 02:20N 24°32' E 118°05'0 0.0
2016-May-25 00:20N 24°32' E 118°05'0 0.0
2016-May-24 23:31N 24°32' E 118°05'0 0.0
2016-May-24 22:33N 24°32' E 118°05'0 0.0
2016-May-24 21:33N 24°32' E 118°05'0 0.0
2016-May-24 20:33N 24°32' E 118°05'0 0.0
2016-May-24 19:33N 24°32' E 118°05'0 0.0
2016-May-24 18:33N 24°32' E 118°05'0 0.0
2016-May-24 17:32N 24°32' E 118°05'0 0.0
2016-May-24 16:33N 24°32' E 118°05'0 0.0
2016-May-24 15:32N 24°32' E 118°05'0 0.0
2016-May-24 09:31N 24°32' E 118°05'0 0.0
2016-May-24 08:33N 24°32' E 118°05'0 0.0
2016-May-24 07:32N 24°32' E 118°05'0 0.0
2016-May-24 06:33N 24°32' E 118°05'0 0.0
2016-May-24 05:31N 24°32' E 118°05'0 0.0
2016-May-24 04:32N 24°32' E 118°05'0 0.0
2016-May-24 03:34N 24°32' E 118°05'0 0.0
2016-May-24 02:33N 24°32' E 118°05'0 0.0
2016-May-24 01:33N 24°32' E 118°05'0 0.0
2016-May-24 00:24N 24°32' E 118°05'0 0.0
2016-May-23 23:31N 24°32' E 118°05'0 0.0
2016-May-23 22:33N 24°32' E 118°05'0 0.0
2016-May-23 21:33N 24°32' E 118°05'0 0.0
2016-May-23 20:32N 24°32' E 118°05'0 0.0
2016-May-23 19:32N 24°32' E 118°05'0 0.0
2016-May-23 18:33N 24°32' E 118°05'0 0.0
2016-May-23 17:33N 24°32' E 118°05'0 0.0
2016-May-23 16:33N 24°32' E 118°05'0 0.0
2016-May-23 15:33N 24°32' E 118°05'0 0.0
2016-May-23 14:33N 24°32' E 118°05'1 0.2
2016-May-23 10:12N 24°32' E 118°05'6 9.4
2016-May-23 09:34N 24°26' E 118°03'5710.9
2016-May-23 04:21N 24°32' E 119°05'  
Track history (hours):
 
Tides and Currents Weather Stations Pressure Air Temp Water Temp Dewpoint Dewpoint Depression Visibility Wind Speed Wind Dir Waves Ship Positions

Long Hua

Last reported at 2016-May-25 18:25 UTC. Time now 2016-May-29 11:38 UTC.
Position N 24°45' E 119°43'.

Length 180 m; draft 9.3 m.

Type: Cargo ship. MMSI: 477622800.

Date/timePositionNaut miles runAvg speedWind from/ knotsBaromVisibWave heightAir tempDewpointWater temp
2016-May-25 18:25N 24°45' E 119°43'2312.2
2016-May-25 16:29N 24°37' E 119°19'1111.8
2016-May-25 15:33N 24°33' E 119°07'57 6.4
2016-May-25 06:33N 24°25' E 118°05'7 6.7
2016-May-25 05:33N 24°32' E 118°05'1 0.9
2016-May-25 04:33N 24°32' E 118°05'0 0.0
2016-May-25 02:20N 24°32' E 118°05'0 0.0
2016-May-25 00:20N 24°32' E 118°05'0 0.0
2016-May-24 23:31N 24°32' E 118°05'0 0.0
2016-May-24 22:33N 24°32' E 118°05'0 0.0
2016-May-24 21:33N 24°32' E 118°05'0 0.0
2016-May-24 20:33N 24°32' E 118°05'0 0.0
2016-May-24 19:33N 24°32' E 118°05'0 0.0
2016-May-24 18:33N 24°32' E 118°05'0 0.0
2016-May-24 17:32N 24°32' E 118°05'0 0.0
2016-May-24 16:33N 24°32' E 118°05'0 0.0
2016-May-24 15:32N 24°32' E 118°05'0 0.0
2016-May-24 09:31N 24°32' E 118°05'0 0.0
2016-May-24 08:33N 24°32' E 118°05'0 0.0
2016-May-24 07:32N 24°32' E 118°05'0 0.0
2016-May-24 06:33N 24°32' E 118°05'0 0.0
2016-May-24 05:31N 24°32' E 118°05'0 0.0
2016-May-24 04:32N 24°32' E 118°05'0 0.0
2016-May-24 03:34N 24°32' E 118°05'0 0.0
2016-May-24 02:33N 24°32' E 118°05'0 0.0
2016-May-24 01:33N 24°32' E 118°05'0 0.0
2016-May-24 00:24N 24°32' E 118°05'0 0.0
2016-May-23 23:31N 24°32' E 118°05'0 0.0
2016-May-23 22:33N 24°32' E 118°05'0 0.0
2016-May-23 21:33N 24°32' E 118°05'0 0.0
2016-May-23 20:32N 24°32' E 118°05'0 0.0
2016-May-23 19:32N 24°32' E 118°05'0 0.0
2016-May-23 18:33N 24°32' E 118°05'0 0.0
2016-May-23 17:33N 24°32' E 118°05'0 0.0
2016-May-23 16:33N 24°32' E 118°05'0 0.0
2016-May-23 15:33N 24°32' E 118°05'0 0.0
2016-May-23 14:33N 24°32' E 118°05'1 0.2
2016-May-23 10:12N 24°32' E 118°05'6 9.4
2016-May-23 09:34N 24°26' E 118°03'5710.9
2016-May-23 04:21N 24°32' E 119°05'  

Dump ship's entire track history